Time;durP1;ratioP1;P1;durP2;ratioP2;P2;SDS_P1;SDS_P2;PMS_P1;PMS_P2;Temp;Humidity;BMP_temperature;BMP_pressure;BME280_temperature;BME280_humidity;BME280_pressure;Samples;Min_cycle;Max_cycle;Signal;HPM_P1;HPM_P2
2023/03/18 00:00:26;;;;;;;9.57;5.50;;;;;;;8.71;100.00;95780.38;4960881;28;20066;-93
2023/03/18 00:02:52;;;;;;;10.17;6.13;;;;;;;8.68;100.00;95775.44;4948956;28;21007;-93
2023/03/18 00:05:18;;;;;;;9.63;5.77;;;;;;;8.66;100.00;95777.41;4968417;28;20027;-93
2023/03/18 00:07:49;;;;;;;10.07;6.40;;;;;;;8.59;100.00;95770.34;4949000;28;20031;-93
2023/03/18 00:10:15;;;;;;;10.80;6.37;;;;;;;8.54;100.00;95781.28;4961534;28;20026;-93
2023/03/18 00:12:42;;;;;;;9.20;6.03;;;;;;;8.46;100.00;95776.03;4957095;28;20057;-93
2023/03/18 00:15:21;;;;;;;8.10;5.20;;;;;;;8.35;100.00;95787.59;4970091;28;20034;-92
2023/03/18 00:17:47;;;;;;;10.93;6.57;;;;;;;8.23;100.00;95792.25;4964394;28;20039;-93
2023/03/18 00:20:15;;;;;;;10.17;5.23;;;;;;;8.19;100.00;95796.16;4968455;28;20031;-93
2023/03/18 00:22:42;;;;;;;9.03;5.57;;;;;;;8.22;100.00;95801.09;4953836;28;20026;-92
2023/03/18 00:25:10;;;;;;;12.30;5.93;;;;;;;8.17;100.00;95794.66;4950393;28;20031;-93
2023/03/18 00:27:37;;;;;;;12.20;6.70;;;;;;;8.06;100.00;95798.38;4962114;28;20150;-93
2023/03/18 00:30:05;;;;;;;11.03;5.43;;;;;;;8.00;100.00;95805.03;4943196;28;20038;-93
2023/03/18 00:32:32;;;;;;;9.60;5.83;;;;;;;7.98;100.00;95803.53;4945128;28;20155;-93
2023/03/18 00:35:00;;;;;;;11.40;5.27;;;;;;;7.92;100.00;95810.25;4963451;28;20523;-93
2023/03/18 00:37:30;;;;;;;11.10;6.27;;;;;;;7.90;100.00;95819.22;4956972;28;20505;-93
2023/03/18 00:40:05;;;;;;;9.90;5.43;;;;;;;7.85;100.00;95811.84;4963562;28;20028;-93
2023/03/18 00:42:38;;;;;;;;;;;;;;;7.86;100.00;95817.88;4949730;29;20049;-93
2023/03/18 00:45:09;;;;;;;12.93;6.87;;;;;;;7.79;100.00;95815.88;4955734;28;19918;-92
2023/03/18 00:47:37;;;;;;;11.33;6.07;;;;;;;7.82;100.00;95808.69;4952148;28;20039;-93
2023/03/18 00:50:05;;;;;;;9.77;4.87;;;;;;;7.72;100.00;95820.06;4952719;28;20078;-93
2023/03/18 00:52:31;;;;;;;9.10;5.23;;;;;;;7.71;100.00;95809.72;4964103;28;20043;-93
2023/03/18 00:54:56;;;;;;;10.23;5.33;;;;;;;7.69;100.00;95815.13;4951561;28;20476;-93
2023/03/18 00:57:23;;;;;;;11.70;6.07;;;;;;;7.63;100.00;95822.78;4951687;28;20133;-93
2023/03/18 00:59:53;;;;;;;11.67;6.33;;;;;;;7.63;100.00;95814.91;4952052;28;20045;-92
2023/03/18 01:02:19;;;;;;;9.97;5.37;;;;;;;7.63;100.00;95820.97;4958382;28;20032;-93
2023/03/18 01:04:45;;;;;;;14.27;6.17;;;;;;;7.55;100.00;95815.69;4957146;28;20053;-92
2023/03/18 01:07:12;;;;;;;9.20;5.60;;;;;;;7.52;100.00;95823.84;4975580;28;20090;-91
2023/03/18 01:09:42;;;;;;;11.60;5.40;;;;;;;7.54;100.00;95816.63;4954414;28;20077;-92
2023/03/18 01:12:09;;;;;;;10.63;5.27;;;;;;;7.51;100.00;95824.78;4959806;28;20111;-92
2023/03/18 01:14:37;;;;;;;11.77;5.87;;;;;;;7.52;100.00;95813.38;4969949;28;20043;-93
2023/03/18 01:17:06;;;;;;;12.57;5.73;;;;;;;7.52;100.00;95810.75;4950087;28;20086;-93
2023/03/18 01:19:32;;;;;;;8.63;5.20;;;;;;;7.47;100.00;95816.41;4944164;28;20023;-92
2023/03/18 01:21:59;;;;;;;9.97;4.87;;;;;;;7.48;100.00;95806.78;4960464;28;20038;-93
2023/03/18 01:24:27;;;;;;;8.87;5.03;;;;;;;7.53;100.00;95810.59;4981907;28;20039;-93
2023/03/18 01:26:54;;;;;;;8.47;4.93;;;;;;;7.49;100.00;95805.81;4959301;28;20126;-93
2023/03/18 01:29:26;;;;;;;10.87;5.97;;;;;;;7.44;100.00;95816.72;4955685;28;20086;-93
2023/03/18 01:31:52;;;;;;;8.27;5.00;;;;;;;7.42;100.00;95813.44;4950774;29;20102;-92
2023/03/18 01:34:33;;;;;;;10.07;5.43;;;;;;;7.45;100.00;95814.94;4965516;28;20027;-92
2023/03/18 01:36:58;;;;;;;9.20;5.13;;;;;;;7.48;100.00;95814.66;4965102;28;20061;-93
2023/03/18 01:39:33;;;;;;;8.73;4.77;;;;;;;7.47;100.00;95816.41;4951654;28;20564;-92
2023/03/18 01:41:59;;;;;;;10.27;5.17;;;;;;;7.49;100.00;95809.25;4939011;28;20039;-93
2023/03/18 01:44:30;;;;;;;10.10;4.87;;;;;;;7.52;100.00;95811.56;4958702;28;20050;-93
2023/03/18 01:46:59;;;;;;;8.47;4.77;;;;;;;7.48;100.00;95819.88;4951663;28;20073;-91
2023/03/18 01:49:35;;;;;;;9.03;5.27;;;;;;;7.45;100.00;95817.56;4946887;29;20079;-91
2023/03/18 01:52:18;;;;;;;7.20;4.00;;;;;;;7.43;100.00;95816.88;4970984;28;20038;-91
2023/03/18 01:54:55;;;;;;;8.67;5.40;;;;;;;7.38;100.00;95822.56;4954535;28;20031;-92
2023/03/18 01:57:29;;;;;;;7.93;4.57;;;;;;;7.39;100.00;95824.19;4955608;28;20027;-92
2023/03/18 01:59:56;;;;;;;10.17;4.57;;;;;;;7.43;100.00;95815.06;4954356;28;20038;-92
2023/03/18 02:02:25;;;;;;;7.97;4.40;;;;;;;7.41;100.00;95824.03;4966405;28;20031;-92
2023/03/18 02:04:53;;;;;;;7.27;4.33;;;;;;;7.37;100.00;95825.31;4953459;28;20071;-92
2023/03/18 02:07:32;;;;;;;9.27;4.10;;;;;;;7.43;100.00;95809.84;4956588;28;20041;-92
2023/03/18 02:10:02;;;;;;;7.20;3.77;;;;;;;7.40;100.00;95819.78;4938039;28;20031;-92
2023/03/18 02:12:32;;;;;;;8.37;4.10;;;;;;;7.38;100.00;95816.47;4963502;28;20039;-92
2023/03/18 02:15:11;;;;;;;7.37;4.00;;;;;;;7.36;100.00;95823.69;4936203;29;20027;-92
2023/03/18 02:17:46;;;;;;;8.10;4.50;;;;;;;7.38;100.00;95817.34;4933500;29;20089;-92
2023/03/18 02:20:44;;;;;;;11.17;4.00;;;;;;;7.41;100.00;95816.19;4949420;29;20042;-92
2023/03/18 02:23:52;;;;;;;7.83;4.23;;;;;;;7.35;100.00;95819.44;4949795;28;20038;-92
2023/03/18 02:26:55;;;;;;;11.63;4.03;;;;;;;7.35;100.00;95811.59;4891186;29;20263;-92
2023/03/18 02:29:30;;;;;;;6.60;3.60;;;;;;;7.33;100.00;95815.16;4937543;28;20286;-91
2023/03/18 02:32:02;;;;;;;;;;;;;;;7.17;100.00;95817.59;4939270;29;20494;-92
2023/03/18 02:34:29;;;;;;;6.47;3.23;;;;;;;7.17;100.00;95819.41;4932833;28;20130;-92
2023/03/18 02:36:56;;;;;;;8.47;3.70;;;;;;;7.16;100.00;95820.38;4947731;28;20039;-92
2023/03/18 02:39:22;;;;;;;9.10;4.20;;;;;;;7.18;100.00;95816.66;4926420;29;20827;-92
2023/03/18 02:41:59;;;;;;;8.50;3.93;;;;;;;7.17;100.00;95814.97;4949965;29;20039;-92
2023/03/18 02:44:25;;;;;;;7.97;4.00;;;;;;;7.16;100.00;95818.59;4940370;29;20053;-91
2023/03/18 02:47:19;;;;;;;7.13;3.67;;;;;;;7.13;100.00;95816.25;4942299;28;20042;-91
2023/03/18 02:49:45;;;;;;;8.53;3.70;;;;;;;7.14;100.00;95815.28;4941680;29;20035;-92
2023/03/18 02:52:12;;;;;;;8.27;3.90;;;;;;;7.14;100.00;95811.84;4945683;28;20035;-92
2023/03/18 02:54:38;;;;;;;7.40;3.70;;;;;;;7.15;100.00;95814.34;4953304;28;20027;-92
2023/03/18 02:57:08;;;;;;;9.17;5.90;;;;;;;7.19;100.00;95810.44;4953037;28;20023;-90
2023/03/18 02:59:35;;;;;;;7.23;4.00;;;;;;;7.22;100.00;95817.19;4963961;28;20035;-92
2023/03/18 03:02:01;;;;;;;8.20;3.90;;;;;;;7.18;100.00;95819.25;4937275;28;20043;-92
2023/03/18 03:04:27;;;;;;;10.17;4.23;;;;;;;7.25;100.00;95824.72;4938475;29;20036;-92
2023/03/18 03:06:55;;;;;;;7.20;3.87;;;;;;;7.21;100.00;95826.81;4939472;29;20257;-92
2023/03/18 03:09:34;;;;;;;7.83;3.33;;;;;;;7.23;100.00;95831.88;4940834;29;20693;-91
2023/03/18 03:12:01;;;;;;;8.87;3.40;;;;;;;7.26;100.00;95824.56;4965812;28;20036;-92
2023/03/18 03:14:29;;;;;;;7.20;3.57;;;;;;;7.25;100.00;95828.16;4932367;29;20235;-92
2023/03/18 03:16:58;;;;;;;8.37;3.40;;;;;;;7.27;100.00;95831.44;4955518;29;20122;-92
2023/03/18 03:19:24;;;;;;;8.73;3.97;;;;;;;7.29;100.00;95834.72;4957114;28;20034;-92
2023/03/18 03:21:50;;;;;;;6.93;3.47;;;;;;;7.31;100.00;95838.03;4949222;28;20031;-92
2023/03/18 03:24:15;;;;;;;6.77;3.30;;;;;;;7.28;100.00;95843.56;4939622;28;20090;-92
2023/03/18 03:26:41;;;;;;;8.17;3.40;;;;;;;7.28;100.00;95848.78;4938841;29;20439;-92
2023/03/18 03:29:07;;;;;;;6.90;3.20;;;;;;;7.31;100.00;95845.88;4937472;29;20041;-92
2023/03/18 03:31:35;;;;;;;6.70;3.07;;;;;;;7.20;100.00;95847.88;4937819;29;20467;-92
2023/03/18 03:34:04;;;;;;;7.53;3.57;;;;;;;7.18;100.00;95848.03;4929439;28;20035;-92
2023/03/18 03:36:42;;;;;;;7.00;3.77;;;;;;;7.14;100.00;95838.81;4935271;29;20524;-92
2023/03/18 03:39:07;;;;;;;7.70;3.60;;;;;;;7.13;100.00;95845.03;4953615;28;20030;-92
2023/03/18 03:41:34;;;;;;;9.97;3.97;;;;;;;7.11;100.00;95846.97;4933004;28;20034;-92
2023/03/18 03:44:00;;;;;;;8.47;3.83;;;;;;;7.08;100.00;95855.13;4932975;29;20032;-91
2023/03/18 03:46:26;;;;;;;9.93;5.33;;;;;;;7.16;100.00;95855.19;4955696;28;20471;-92
2023/03/18 03:48:52;;;;;;;7.77;3.37;;;;;;;7.16;100.00;95851.75;4943440;29;20039;-92
2023/03/18 03:51:24;;;;;;;8.53;4.03;;;;;;;7.04;100.00;95854.59;4938237;28;20037;-92
2023/03/18 03:53:50;;;;;;;10.07;3.80;;;;;;;6.97;100.00;95855.28;4929811;29;20035;-91
2023/03/18 03:56:16;;;;;;;7.50;3.47;;;;;;;6.85;100.00;95855.50;4940722;29;20038;-92
2023/03/18 03:58:42;;;;;;;7.70;3.40;;;;;;;6.89;100.00;95857.84;4936120;29;20034;-92
2023/03/18 04:01:11;;;;;;;9.00;4.37;;;;;;;6.92;100.00;95863.59;4926977;29;20032;-92
2023/03/18 04:03:37;;;;;;;8.33;4.60;;;;;;;6.90;100.00;95864.69;4930197;29;20698;-91
2023/03/18 04:06:18;;;;;;;9.00;5.10;;;;;;;6.91;100.00;95872.41;4937565;28;20042;-92
2023/03/18 04:08:54;;;;;;;9.63;5.03;;;;;;;6.80;100.00;95870.78;4941192;29;20712;-92
2023/03/18 04:11:25;;;;;;;9.03;4.40;;;;;;;6.79;100.00;95879.59;4947134;28;20126;-92
2023/03/18 04:13:52;;;;;;;7.50;3.90;;;;;;;6.79;100.00;95877.00;4944923;28;20054;-91
2023/03/18 04:16:17;;;;;;;9.70;4.87;;;;;;;6.74;100.00;95868.78;4938854;29;20049;-91
2023/03/18 04:18:44;;;;;;;8.27;4.40;;;;;;;6.73;100.00;95872.34;4940415;28;20041;-92
2023/03/18 04:21:10;;;;;;;10.40;5.50;;;;;;;6.76;100.00;95868.63;4958533;28;20031;-93
2023/03/18 04:23:44;;;;;;;11.33;4.50;;;;;;;6.75;100.00;95875.63;4938531;29;20028;-92
2023/03/18 04:26:11;;;;;;;9.87;4.40;;;;;;;6.78;100.00;95872.75;4928328;29;20371;-92
2023/03/18 04:28:37;;;;;;;6.93;3.73;;;;;;;6.83;100.00;95875.72;4935652;29;20031;-91
2023/03/18 04:31:06;;;;;;;9.50;3.20;;;;;;;6.76;100.00;95879.06;4940334;29;20086;-92
2023/03/18 04:33:33;;;;;;;6.30;3.30;;;;;;;6.78;100.00;95879.75;4950190;28;20027;-91
2023/03/18 04:35:59;;;;;;;6.97;3.40;;;;;;;6.75;100.00;95873.03;4933835;29;20035;-90
2023/03/18 04:38:27;;;;;;;12.50;5.77;;;;;;;6.77;100.00;95863.25;4965826;28;20099;-91
2023/03/18 04:40:53;;;;;;;11.77;5.27;;;;;;;6.80;100.00;95876.00;4949404;29;20406;-91
2023/03/18 04:43:19;;;;;;;10.10;4.40;;;;;;;6.71;100.00;95887.34;4952381;29;20083;-91
2023/03/18 04:45:47;;;;;;;6.33;2.93;;;;;;;6.73;100.00;95884.59;4973343;28;20295;-90
2023/03/18 04:48:14;;;;;;;6.83;2.87;;;;;;;6.69;100.00;95886.66;4928425;28;20046;-92
2023/03/18 04:50:42;;;;;;;6.10;3.10;;;;;;;6.67;100.00;95883.34;4937006;29;20034;-92
2023/03/18 04:53:13;;;;;;;6.73;3.40;;;;;;;6.60;100.00;95887.50;4943370;29;20035;-91
2023/03/18 04:55:42;;;;;;;5.93;3.10;;;;;;;6.57;100.00;95887.78;4938755;29;20033;-92
2023/03/18 05:45:33;;;;;;;8.88;3.13;;;;;;;6.43;100.00;95893.50;4960234;28;20116;-92
2023/03/18 05:48:05;;;;;;;7.13;3.43;;;;;;;6.47;100.00;95894.84;4941190;29;20043;-92
2023/03/18 05:50:42;;;;;;;6.67;3.27;;;;;;;6.54;100.00;95890.72;4954734;29;20467;-92
2023/03/18 05:53:25;;;;;;;7.20;3.60;;;;;;;6.57;100.00;95891.25;4955011;29;20035;-92
2023/03/18 05:56:05;;;;;;;6.13;3.10;;;;;;;6.46;100.00;95887.97;4961204;29;20019;-91
2023/03/18 05:59:29;;;;;;;;;;;;;;;;;;;;;
2023/03/18 06:02:36;;;;;;;13.73;4.67;;;;;;;6.48;100.00;95894.72;4885441;29;20036;-91
2023/03/18 06:05:14;;;;;;;7.45;3.72;;;;;;;6.50;100.00;95892.78;4888675;29;20037;-92
2023/03/18 06:08:19;;;;;;;11.20;5.33;;;;;;;6.56;100.00;95894.00;4952319;29;20047;-92
2023/03/18 06:11:09;;;;;;;11.50;5.13;;;;;;;6.71;100.00;95900.41;4959894;29;20044;-92
2023/03/18 06:13:54;;;;;;;12.30;6.30;;;;;;;6.75;100.00;95893.94;4964160;28;20044;-92
2023/03/18 06:20:08;;;;;;;11.27;5.63;;;;;;;6.84;100.00;95898.31;4982997;28;20049;-92
2023/03/18 06:23:50;;;;;;;;;;;;;;;;;;;;;
2023/03/18 06:34:40;;;;;;;18.47;11.37;;;;;;;7.37;100.00;95899.38;4964483;29;20540;-92
2023/03/18 06:37:09;;;;;;;17.20;11.17;;;;;;;7.50;100.00;95902.47;4938637;28;20047;-92
2023/03/18 06:39:48;;;;;;;13.60;8.80;;;;;;;7.61;100.00;95901.41;4961695;28;20026;-92
2023/03/18 06:43:18;;;;;;;;;;;;;;;;;;;;;
2023/03/18 06:46:22;;;;;;;26.97;15.93;;;;;;;8.01;100.00;95893.13;4926789;28;20109;-92
2023/03/18 06:49:15;;;;;;;15.90;8.53;;;;;;;8.25;100.00;95887.25;4974211;28;20039;-92
2023/03/18 06:51:55;;;;;;;12.53;6.77;;;;;;;8.52;100.00;95890.72;4952544;28;20039;-92
2023/03/18 06:54:59;;;;;;;15.53;8.13;;;;;;;8.68;100.00;95887.34;4975996;28;20038;-92
2023/03/18 06:57:26;;;;;;;18.10;9.20;;;;;;;8.62;100.00;95891.44;4948230;28;20047;-92
2023/03/18 06:59:53;;;;;;;22.20;12.77;;;;;;;8.64;100.00;95901.75;4945348;28;20469;-86
2023/03/18 07:02:46;;;;;;;16.77;8.53;;;;;;;8.78;100.00;95893.28;4951070;28;20046;-86
2023/03/18 07:05:41;;;;;;;11.10;5.07;;;;;;;8.99;100.00;95898.16;4946481;28;20049;-86
2023/03/18 07:08:26;;;;;;;8.30;4.07;;;;;;;9.31;100.00;95894.00;4930570;29;20071;-86
2023/03/18 07:11:26;;;;;;;14.77;5.70;;;;;;;9.55;100.00;95890.63;4954098;28;20038;-86
2023/03/18 07:19:21;;;;;;;15.60;8.57;;;;;;;9.83;100.00;95904.28;4898437;29;20032;-87
2023/03/18 07:22:34;;;;;;;;;;;;;;;;;;;;;
2023/03/18 07:25:36;;;;;;;8.10;4.15;;;;;;;10.24;100.00;95899.06;4959043;28;20099;-88
2023/03/18 07:28:39;;;;;;;;;;;;;;;;;;;;;
2023/03/18 07:31:20;;;;;;;13.53;6.83;;;;;;;12.15;100.00;95905.88;4929056;28;20043;-89
2023/03/18 07:33:52;;;;;;;9.83;4.67;;;;;;;12.36;100.00;95907.84;4936383;28;20042;-90
2023/03/18 07:36:38;;;;;;;5.50;2.55;;;;;;;12.92;100.00;95901.19;4936357;28;20070;-91
2023/03/18 07:39:13;;;;;;;12.57;3.00;;;;;;;13.27;100.00;95898.81;4920969;28;20477;-92
2023/03/18 07:44:52;;;;;;;5.33;2.37;;;;;;;13.79;100.00;95900.44;4905371;29;20050;-91
2023/03/18 07:47:40;;;;;;;8.30;2.53;;;;;;;14.42;100.00;95902.44;4926509;29;20401;-96
2023/03/18 07:50:07;;;;;;;8.07;2.93;;;;;;;15.06;100.00;95897.03;4932612;29;20089;-92
2023/03/18 07:52:36;;;;;;;9.20;3.20;;;;;;;14.96;100.00;95907.16;4915230;29;20086;-93
2023/03/18 07:55:03;;;;;;;15.70;2.60;;;;;;;15.95;90.50;95896.97;4936249;28;20030;-93
2023/03/18 07:57:32;;;;;;;5.53;2.50;;;;;;;15.62;95.51;95904.00;4944429;28;20038;-94
2023/03/18 08:00:01;;;;;;;6.57;2.43;;;;;;;15.88;89.88;95900.63;4925109;29;20163;-94
2023/03/18 08:02:49;;;;;;;6.43;2.40;;;;;;;16.03;88.06;95910.06;4949346;28;20038;-94
2023/03/18 08:05:26;;;;;;;7.63;2.10;;;;;;;16.45;88.81;95908.06;4928381;29;20060;-94
2023/03/18 08:07:53;;;;;;;6.20;2.10;;;;;;;17.51;79.44;95901.78;4923518;29;20043;-93
2023/03/18 08:10:34;;;;;;;6.45;2.15;;;;;;;17.13;79.18;95907.00;4906623;29;20426;-93
2023/03/18 08:13:19;;;;;;;7.07;2.63;;;;;;;17.08;82.60;95906.81;4922963;29;20039;-94
2023/03/18 08:15:47;;;;;;;8.60;2.40;;;;;;;18.01;75.31;95907.31;4907169;29;20036;-94
2023/03/18 08:18:12;;;;;;;8.10;2.33;;;;;;;17.97;75.51;95911.41;4925295;29;20059;-93
2023/03/18 08:21:19;;;;;;;5.43;1.70;;;;;;;18.05;68.06;95905.84;4942501;28;20105;-94
2023/03/18 08:27:32;;;;;;;10.23;3.45;;;;;;;18.16;64.58;95909.66;4982111;28;20122;-95
2023/03/18 08:30:27;;;;;;;5.13;1.75;;;;;;;18.52;60.68;95909.00;4924738;29;20071;-96
2023/03/18 08:36:41;;;;;;;4.53;1.80;;;;;;;18.00;65.38;95908.31;4957281;28;20091;-94
2023/03/18 08:39:08;;;;;;;4.88;1.80;;;;;;;18.47;63.47;95905.34;4919399;29;20031;-93
2023/03/18 08:41:37;;;;;;;5.15;1.90;;;;;;;18.19;64.58;95909.22;4928318;28;20073;-93
2023/03/18 08:44:14;;;;;;;5.93;2.15;;;;;;;18.05;68.00;95915.66;4920497;29;20110;-93
2023/03/18 08:46:39;;;;;;;5.63;1.67;;;;;;;19.29;59.95;95914.06;4921072;29;20035;-93
2023/03/18 08:49:24;;;;;;;11.18;2.25;;;;;;;19.72;55.48;95907.84;4937294;29;20042;-91
2023/03/18 08:51:51;;;;;;;3.95;1.83;;;;;;;20.07;56.54;95907.19;4918592;29;20122;-94
2023/03/18 08:54:17;;;;;;;3.42;1.70;;;;;;;20.63;56.78;95911.31;4929369;28;20063;-95
2023/03/18 08:56:43;;;;;;;6.82;2.42;;;;;;;20.19;54.61;95902.72;4937031;28;20039;-94
2023/03/18 08:59:09;;;;;;;6.82;1.80;;;;;;;20.63;53.48;95900.63;4944362;29;20106;-95
2023/03/18 09:01:48;;;;;;;7.95;2.15;;;;;;;20.99;52.70;95902.25;4923495;29;20027;-95
2023/03/18 09:04:13;;;;;;;6.63;1.35;;;;;;;21.59;48.90;95901.16;4916436;28;20115;-94
2023/03/18 09:06:52;;;;;;;6.85;2.13;;;;;;;21.50;46.20;95900.72;4923726;29;20045;-94
2023/03/18 09:09:20;;;;;;;5.78;1.35;;;;;;;20.69;47.57;95907.69;4938852;28;20031;-94
2023/03/18 09:11:51;;;;;;;6.93;1.40;;;;;;;20.14;47.05;95906.03;4938215;28;20043;-95
2023/03/18 09:14:32;;;;;;;5.10;1.48;;;;;;;20.92;49.47;95907.75;4927250;29;20094;-94
2023/03/18 09:16:58;;;;;;;4.38;1.33;;;;;;;21.22;45.48;95906.78;4937391;28;20408;-95
2023/03/18 09:19:25;;;;;;;3.80;0.90;;;;;;;20.62;46.94;95907.00;4921910;29;20035;-95
2023/03/18 09:21:58;;;;;;;2.60;1.52;;;;;;;20.78;48.82;95902.84;4930989;28;20035;-94
2023/03/18 09:24:23;;;;;;;4.50;1.27;;;;;;;21.45;47.43;95894.44;4907664;29;20107;-94
2023/03/18 09:26:49;;;;;;;3.80;1.13;;;;;;;21.21;45.01;95907.84;4940058;29;20047;-92
2023/03/18 09:29:15;;;;;;;3.85;1.35;;;;;;;21.18;45.83;95900.28;4938731;29;20046;-91
2023/03/18 09:31:40;;;;;;;3.92;1.30;;;;;;;20.04;49.89;95895.09;4919332;29;20123;-80
2023/03/18 09:34:06;;;;;;;4.00;1.67;;;;;;;20.79;49.40;95896.44;4931812;29;20067;-80
2023/03/18 09:36:32;;;;;;;6.00;1.65;;;;;;;21.23;49.82;95891.53;4915224;29;20031;-85
2023/03/18 09:38:59;;;;;;;6.88;4.07;;;;;;;21.50;48.36;95886.53;4915381;29;20621;-80
2023/03/18 09:41:53;;;;;;;61.05;42.28;;;;;;;21.93;44.17;95882.53;4939998;28;20441;-81
2023/03/18 09:44:29;;;;;;;4.78;1.65;;;;;;;20.76;44.18;95884.38;4929540;28;20149;-80
2023/03/18 09:47:04;;;;;;;3.85;1.33;;;;;;;21.45;44.84;95881.06;4910622;28;20049;-80
2023/03/18 09:50:12;;;;;;;4.70;1.70;;;;;;;20.83;45.30;95882.41;4929416;29;20126;-81
2023/03/18 09:52:51;;;;;;;2.88;1.40;;;;;;;20.90;45.75;95888.44;4916693;28;20876;-80
2023/03/18 09:55:40;;;;;;;16.17;2.42;;;;;;;20.88;45.60;95879.81;4919550;29;20027;-81
2023/03/18 09:58:40;;;;;;;10.00;1.80;;;;;;;21.79;45.56;95885.50;4924783;29;20035;-85
2023/03/18 10:01:47;;;;;;;6.15;2.42;;;;;;;20.98;44.22;95878.44;4911356;29;20031;-82
2023/03/18 10:04:20;;;;;;;2.78;1.45;;;;;;;21.91;43.01;95876.63;4923071;29;20533;-84
2023/03/18 10:06:57;;;;;;;4.30;1.48;;;;;;;22.62;43.94;95872.53;4918751;28;20031;-82
2023/03/18 10:09:45;;;;;;;3.60;1.25;;;;;;;20.56;46.18;95881.22;4944197;28;20118;-86
2023/03/18 10:12:17;;;;;;;3.22;1.35;;;;;;;21.25;46.79;95874.22;4921776;29;20386;-85
2023/03/18 10:15:18;;;;;;;5.78;1.10;;;;;;;20.46;46.00;95876.41;4922553;29;20047;-83
2023/03/18 10:18:09;;;;;;;1.88;0.90;;;;;;;20.74;47.53;95877.63;4939266;28;20035;-81
2023/03/18 10:21:12;;;;;;;6.00;1.75;;;;;;;21.81;45.13;95867.34;4931194;28;20036;-84
2023/03/18 10:23:48;;;;;;;3.97;2.22;;;;;;;21.83;46.18;95864.41;4923957;29;20047;-81
2023/03/18 10:26:40;;;;;;;6.05;1.65;;;;;;;21.76;40.37;95869.91;4908863;29;20031;-83
2023/03/18 10:29:19;;;;;;;3.25;1.48;;;;;;;22.28;42.07;95867.16;4923375;29;20115;-84
2023/03/18 10:32:20;;;;;;;8.65;1.33;;;;;;;22.48;39.33;95876.59;4911617;29;20055;-84
2023/03/18 10:35:21;;;;;;;5.72;3.55;;;;;;;22.74;40.46;95867.91;4920715;28;20134;-85
2023/03/18 10:38:03;;;;;;;5.03;1.95;;;;;;;22.24;42.75;95873.25;4928459;28;20031;-85
2023/03/18 10:40:37;;;;;;;5.97;2.45;;;;;;;22.37;43.17;95870.25;4922636;29;20504;-83
2023/03/18 10:43:08;;;;;;;16.35;12.45;;;;;;;22.02;44.51;95867.72;4947757;28;20038;-85
2023/03/18 10:45:39;;;;;;;8.52;3.50;;;;;;;22.88;40.51;95864.88;4928755;28;20398;-86
2023/03/18 10:48:10;;;;;;;4.40;1.50;;;;;;;22.86;39.39;95864.31;4937117;28;20067;-83
2023/03/18 10:50:43;;;;;;;6.03;2.15;;;;;;;22.22;42.23;95864.63;4940815;28;20070;-84
2023/03/18 10:53:25;;;;;;;3.38;1.20;;;;;;;22.82;42.18;95856.75;4932707;29;20043;-83
2023/03/18 10:56:10;;;;;;;3.92;1.50;;;;;;;22.71;39.79;95856.88;4921277;29;20054;-83
2023/03/18 11:05:58;;;;;;;5.85;2.25;;;;;;;21.88;43.13;95849.28;4930062;29;20135;-87
2023/03/18 11:08:33;;;;;;;4.00;1.42;;;;;;;22.78;40.94;95844.09;4915993;29;20039;-80
2023/03/18 11:11:27;;;;;;;3.30;1.30;;;;;;;23.05;37.57;95841.56;4918153;29;20086;-80
2023/03/18 11:13:56;;;;;;;3.17;1.55;;;;;;;23.45;38.63;95833.22;4908667;28;20043;-80
2023/03/18 11:16:29;;;;;;;6.25;1.40;;;;;;;23.40;37.41;95835.81;4917836;29;20042;-80
2023/03/18 11:18:57;;;;;;;3.20;1.40;;;;;;;23.59;37.61;95833.66;4936390;29;20442;-80
2023/03/18 11:21:30;;;;;;;12.00;6.63;;;;;;;24.49;36.61;95834.03;4921493;28;20493;-79
2023/03/18 11:24:23;;;;;;;;;;;;;;;23.35;39.89;95833.09;4917663;29;20042;-78
2023/03/18 11:26:54;;;;;;;5.10;1.40;;;;;;;23.21;38.25;95831.84;4933433;29;19919;-78
2023/03/18 11:29:33;;;;;;;4.20;1.52;;;;;;;23.49;38.74;95830.84;4925205;28;20042;-78
2023/03/18 11:32:00;;;;;;;3.85;1.42;;;;;;;23.51;36.97;95824.19;4924420;29;20046;-78
2023/03/18 11:34:28;;;;;;;4.30;1.52;;;;;;;22.79;39.67;95817.03;4930585;28;20039;-77
2023/03/18 11:37:03;;;;;;;3.72;1.30;;;;;;;22.94;39.12;95827.22;4922052;28;20664;-79
2023/03/18 11:39:37;;;;;;;3.38;1.30;;;;;;;22.73;37.61;95820.69;4917525;29;20477;-78
2023/03/18 11:42:21;;;;;;;3.40;1.48;;;;;;;23.91;37.36;95814.97;4929051;28;20118;-78
2023/03/18 11:44:53;;;;;;;3.13;1.42;;;;;;;23.33;38.06;95807.56;4921839;28;20046;-78
2023/03/18 11:47:23;;;;;;;4.00;1.50;;;;;;;23.55;39.31;95810.25;4928315;29;20553;-78
2023/03/18 11:49:48;;;;;;;3.85;1.30;;;;;;;23.10;38.45;95809.44;4934590;29;20492;-79
2023/03/18 11:52:37;;;;;;;4.60;1.30;;;;;;;23.14;39.20;95805.22;4923802;29;20130;-80
2023/03/18 11:55:39;;;;;;;6.72;1.60;;;;;;;23.62;36.77;95802.81;4922658;29;20039;-78
2023/03/18 11:58:24;;;;;;;5.18;1.67;;;;;;;22.57;37.20;95797.44;4924149;29;20036;-79
2023/03/18 12:01:16;;;;;;;4.55;1.88;;;;;;;22.86;40.13;95803.44;4944907;28;20091;-80
2023/03/18 12:04:34;;;;;;;4.03;1.50;;;;;;;23.24;40.84;95793.81;4947161;28;20039;-80
2023/03/18 12:07:37;;;;;;;5.03;1.92;;;;;;;22.67;41.58;95794.06;4918399;29;20027;-78
2023/03/18 12:10:23;;;;;;;6.13;1.77;;;;;;;24.12;41.08;95790.97;4918010;29;20146;-79
2023/03/18 12:13:10;;;;;;;3.72;1.45;;;;;;;23.70;38.78;95792.44;4922617;28;20035;-79
2023/03/18 12:15:53;;;;;;;6.38;1.50;;;;;;;23.45;39.65;95789.47;4915525;29;20799;-77
2023/03/18 12:18:53;;;;;;;5.07;1.38;;;;;;;24.05;39.94;95799.25;4918162;28;20066;-76
2023/03/18 12:21:34;;;;;;;3.58;1.35;;;;;;;23.89;39.34;95800.16;4914479;29;20071;-76
2023/03/18 12:24:19;;;;;;;3.42;1.40;;;;;;;23.30;35.85;95792.78;4935488;29;20043;-79
2023/03/18 12:27:37;;;;;;;3.97;1.70;;;;;;;24.77;36.09;95787.19;4941724;28;20151;-79
2023/03/18 12:31:03;;;;;;;5.47;1.60;;;;;;;24.54;36.31;95785.69;4924667;29;20663;-77
2023/03/18 12:33:32;;;;;;;9.63;5.13;;;;;;;23.74;36.77;95777.47;4922592;29;20039;-78
2023/03/18 12:36:14;;;;;;;4.45;1.60;;;;;;;23.09;36.11;95775.63;4923235;29;20383;-78
2023/03/18 12:38:54;;;;;;;4.57;2.22;;;;;;;23.67;37.05;95771.44;4949893;28;20102;-78
2023/03/18 12:45:15;;;;;;;5.13;2.72;;;;;;;24.68;35.14;95770.75;4927773;29;20760;-79
2023/03/18 12:48:04;;;;;;;4.25;1.70;;;;;;;24.54;33.81;95768.75;4934173;28;20508;-78
2023/03/18 12:50:41;;;;;;;3.00;1.23;;;;;;;24.52;32.72;95763.63;4935848;28;20038;-78
2023/03/18 12:53:38;;;;;;;3.97;1.42;;;;;;;24.82;35.52;95767.59;4933804;28;20046;-77
2023/03/18 16:32:02;;;;;;;4.88;2.50;;;;;;;16.85;93.86;95708.09;4925768;29;20136;-85
2023/03/18 16:34:28;;;;;;;6.95;2.72;;;;;;;16.84;95.20;95712.59;4919093;29;20130;-85
2023/03/18 16:36:54;;;;;;;10.25;2.80;;;;;;;16.78;95.96;95717.91;4923552;29;20094;-85
2023/03/18 16:39:32;;;;;;;5.75;2.58;;;;;;;16.55;97.10;95713.88;4915350;28;20039;-85
2023/03/18 16:41:59;;;;;;;5.82;2.40;;;;;;;16.42;96.51;95714.72;4908377;29;20038;-85
2023/03/18 16:44:25;;;;;;;6.15;2.22;;;;;;;16.58;98.19;95715.31;4916451;29;20035;-85
2023/03/18 16:46:56;;;;;;;6.70;2.50;;;;;;;16.39;97.90;95722.28;4924168;28;20395;-85
2023/03/18 16:49:24;;;;;;;5.85;2.60;;;;;;;16.53;99.64;95718.56;4917666;29;20035;-85
2023/03/18 16:51:50;;;;;;;5.82;2.83;;;;;;;16.54;99.30;95722.06;4913192;29;20038;-85
2023/03/18 16:54:18;;;;;;;10.98;3.08;;;;;;;16.55;98.51;95721.03;4943517;28;20090;-85
2023/03/18 16:56:45;;;;;;;4.88;2.58;;;;;;;16.42;100.00;95721.88;4904737;28;20054;-85
2023/03/18 16:59:12;;;;;;;6.75;2.88;;;;;;;16.37;100.00;95725.16;4929003;29;20023;-85
2023/03/18 17:01:42;;;;;;;7.82;3.15;;;;;;;16.13;100.00;95728.44;4930459;28;20221;-85
2023/03/18 17:04:25;;;;;;;8.27;2.65;;;;;;;16.18;100.00;95726.00;4912685;28;20050;-84
2023/03/18 17:06:51;;;;;;;6.65;2.80;;;;;;;15.99;100.00;95732.97;4918153;28;20039;-85
2023/03/18 17:09:18;;;;;;;7.63;2.97;;;;;;;15.84;100.00;95735.03;4912084;28;20038;-85
2023/03/18 17:11:45;;;;;;;5.78;3.20;;;;;;;15.70;100.00;95740.31;4927891;28;20035;-85
2023/03/18 17:14:33;;;;;;;6.15;2.70;;;;;;;15.70;100.00;95740.31;4918990;29;20033;-85
2023/03/18 17:17:02;;;;;;;9.10;2.92;;;;;;;15.60;100.00;95744.38;4937576;29;20069;-85
2023/03/18 17:19:28;;;;;;;6.10;2.72;;;;;;;15.40;100.00;95745.16;4928807;29;20114;-85